createdAt,value
2019-02-16T00:00:51.546Z,4.30
2019-02-16T00:03:21.009Z,4.30
2019-02-16T00:05:50.579Z,4.30
2019-02-16T00:08:20.030Z,4.30
2019-02-16T00:10:49.534Z,4.20
2019-02-16T00:13:19.005Z,4.20
2019-02-16T00:15:48.479Z,4.10
2019-02-16T00:18:17.999Z,4.10
2019-02-16T00:20:47.450Z,4.10
2019-02-16T00:23:16.996Z,4.10
2019-02-16T00:25:46.473Z,4.20
2019-02-16T00:28:16.023Z,4.20
2019-02-16T00:30:45.537Z,4.10
2019-02-16T00:33:14.997Z,4.00
2019-02-16T00:35:44.584Z,4.00
2019-02-16T00:38:14.064Z,4.00
2019-02-16T00:40:43.551Z,4.00
2019-02-16T00:43:13.011Z,4.00
2019-02-16T00:45:42.517Z,4.00
2019-02-16T00:48:11.998Z,3.90
2019-02-16T00:50:41.495Z,3.90
2019-02-16T00:53:11.040Z,4.00
2019-02-16T00:55:42.628Z,3.90
2019-02-16T00:58:12.089Z,3.90
2019-02-16T01:00:41.596Z,3.90
2019-02-16T01:03:11.062Z,3.90
2019-02-16T01:05:42.261Z,3.80
2019-02-16T01:08:11.749Z,3.80
2019-02-16T01:10:41.241Z,3.80
2019-02-16T01:13:10.830Z,3.70
2019-02-16T01:15:40.298Z,3.70
2019-02-16T01:18:11.841Z,3.70
2019-02-16T01:20:41.453Z,3.70
2019-02-16T01:23:11.237Z,3.80
2019-02-16T01:25:40.704Z,3.80
2019-02-16T01:28:10.204Z,3.80
2019-02-16T01:30:39.760Z,3.70
2019-02-16T01:33:09.229Z,3.70
2019-02-16T01:35:38.697Z,3.70
2019-02-16T01:38:08.237Z,3.70
2019-02-16T01:40:38.675Z,3.70
2019-02-16T01:43:08.165Z,3.70
2019-02-16T01:45:37.995Z,3.70
2019-02-16T01:48:07.484Z,3.70
2019-02-16T01:50:36.977Z,3.70
2019-02-16T01:53:06.519Z,3.60
2019-02-16T01:55:36.033Z,3.60
2019-02-16T01:58:05.557Z,3.60
2019-02-16T02:00:35.073Z,3.50
2019-02-16T02:03:04.643Z,3.50
2019-02-16T02:05:34.158Z,3.50
2019-02-16T02:08:03.761Z,3.50
2019-02-16T02:10:33.253Z,3.50
2019-02-16T02:13:02.725Z,3.50
2019-02-16T02:15:32.241Z,3.60
2019-02-16T02:18:01.717Z,3.50
2019-02-16T02:20:31.779Z,3.50
2019-02-16T02:23:01.279Z,3.50
2019-02-16T02:25:30.803Z,3.50
2019-02-16T02:28:00.291Z,3.50
2019-02-16T02:30:29.802Z,3.50
2019-02-16T02:32:59.349Z,3.40
2019-02-16T02:35:28.826Z,3.40
2019-02-16T02:37:58.341Z,3.40
2019-02-16T02:40:27.794Z,3.40
2019-02-16T02:42:57.262Z,3.40
2019-02-16T02:45:26.833Z,3.40
2019-02-16T02:47:56.311Z,3.40
2019-02-16T02:50:27.556Z,3.50
2019-02-16T02:52:57.075Z,3.40
2019-02-16T02:55:26.555Z,3.40
2019-02-16T02:57:56.099Z,3.40
2019-02-16T03:00:25.543Z,3.40
2019-02-16T03:02:55.043Z,3.40
2019-02-16T03:05:24.514Z,3.40
2019-02-16T03:07:53.981Z,3.40
2019-02-16T03:10:23.461Z,3.40
2019-02-16T03:12:52.966Z,3.40
2019-02-16T03:15:22.435Z,3.40
2019-02-16T03:17:51.900Z,3.40
2019-02-16T03:20:21.397Z,3.30
2019-02-16T03:23:12.718Z,3.40
2019-02-16T03:25:44.314Z,3.40
2019-02-16T03:28:30.523Z,3.40
2019-02-16T03:31:49.263Z,3.40
2019-02-16T03:34:22.565Z,3.40
2019-02-16T03:37:35.984Z,3.40
2019-02-16T03:40:05.924Z,3.40
2019-02-16T03:42:35.420Z,3.40
2019-02-16T03:45:05.247Z,3.40
2019-02-16T03:47:34.725Z,3.30
2019-02-16T03:50:04.298Z,3.30
2019-02-16T03:52:33.721Z,3.30
2019-02-16T03:55:03.185Z,3.30
2019-02-16T03:57:32.713Z,3.30
2019-02-16T04:00:02.170Z,3.40
2019-02-16T04:02:31.667Z,3.30
2019-02-16T04:05:01.194Z,3.30
2019-02-16T04:07:30.676Z,3.30
2019-02-16T04:10:00.427Z,3.30
2019-02-16T04:12:29.953Z,3.30
2019-02-16T04:14:59.682Z,3.20
2019-02-16T04:17:29.160Z,3.20
2019-02-16T04:19:58.920Z,3.20
2019-02-16T04:22:28.394Z,3.30
2019-02-16T04:24:57.871Z,3.30
2019-02-16T04:27:27.362Z,3.30
2019-02-16T04:29:56.876Z,3.30
2019-02-16T04:32:26.415Z,3.30
2019-02-16T04:34:55.929Z,3.20
2019-02-16T04:37:25.386Z,3.30
2019-02-16T04:39:54.888Z,3.30
2019-02-16T04:42:24.502Z,3.30
2019-02-16T04:44:54.166Z,3.30
2019-02-16T04:47:23.641Z,3.30
2019-02-16T04:49:53.160Z,3.30
2019-02-16T04:52:22.676Z,3.30
2019-02-16T04:54:52.153Z,3.30
2019-02-16T04:57:21.653Z,3.30
2019-02-16T04:59:51.536Z,3.30
2019-02-16T05:02:21.071Z,3.30
2019-02-16T05:04:50.655Z,3.30
2019-02-16T05:07:20.151Z,3.30
2019-02-16T05:09:49.661Z,3.30
2019-02-16T05:12:19.203Z,3.30
2019-02-16T05:14:48.833Z,3.20
2019-02-16T05:17:18.329Z,3.30
2019-02-16T05:19:48.079Z,3.30
2019-02-16T05:22:17.534Z,3.20
2019-02-16T05:24:47.038Z,3.20
2019-02-16T05:27:16.540Z,3.10
2019-02-16T05:29:46.070Z,3.10
2019-02-16T05:32:15.576Z,3.10
2019-02-16T05:34:45.098Z,3.10
2019-02-16T05:37:14.652Z,3.10
2019-02-16T05:39:44.153Z,3.00
2019-02-16T05:42:13.639Z,3.00
2019-02-16T05:44:43.375Z,3.00
2019-02-16T05:47:12.843Z,3.00
2019-02-16T05:49:42.344Z,3.00
2019-02-16T05:52:12.019Z,3.00
2019-02-16T05:54:42.545Z,3.00
2019-02-16T05:57:12.003Z,3.00
2019-02-16T05:59:43.773Z,2.90
2019-02-16T06:02:13.282Z,2.90
2019-02-16T06:04:42.810Z,2.90
2019-02-16T06:07:12.273Z,2.90
2019-02-16T06:09:43.853Z,2.90
2019-02-16T06:12:13.627Z,2.80
2019-02-16T06:14:43.142Z,2.80
2019-02-16T06:17:12.980Z,2.70
2019-02-16T06:19:42.451Z,2.70
2019-02-16T06:22:12.985Z,2.70
2019-02-16T06:24:42.480Z,2.70
2019-02-16T06:27:11.998Z,2.70
2019-02-16T06:29:42.052Z,2.60
2019-02-16T06:32:11.644Z,2.70
2019-02-16T06:34:41.375Z,2.60
2019-02-16T06:37:24.292Z,2.60
2019-02-16T06:39:53.815Z,2.50
2019-02-16T06:42:23.299Z,2.60
2019-02-16T06:44:53.048Z,2.60
2019-02-16T06:47:22.565Z,2.60
2019-02-16T06:49:52.041Z,2.70
2019-02-16T06:52:21.572Z,2.70
2019-02-16T06:54:51.094Z,2.70
2019-02-16T06:57:28.412Z,2.70
2019-02-16T06:59:58.014Z,2.80
2019-02-16T07:02:29.331Z,2.80
2019-02-16T07:04:58.835Z,2.80
2019-02-16T07:07:28.448Z,2.80
2019-02-16T07:09:58.052Z,2.70
2019-02-16T07:12:27.562Z,2.70
2019-02-16T07:14:57.334Z,2.70
2019-02-16T07:17:39.084Z,2.70
2019-02-16T07:20:11.448Z,2.70
2019-02-16T07:22:42.980Z,2.80
2019-02-16T07:25:12.694Z,2.80
2019-02-16T07:27:42.534Z,2.90
2019-02-16T07:30:12.370Z,2.90
2019-02-16T07:32:41.818Z,2.90
2019-02-16T07:35:11.493Z,3.00
2019-02-16T07:37:41.067Z,3.00
2019-02-16T07:40:10.574Z,2.90
2019-02-16T07:42:59.046Z,2.90
2019-02-16T07:45:49.977Z,3.00
2019-02-16T07:48:35.364Z,3.00
2019-02-16T07:51:23.991Z,3.10
2019-02-16T07:54:15.447Z,3.10
2019-02-16T07:57:07.573Z,3.10
2019-02-16T07:59:54.705Z,3.20
2019-02-16T08:02:30.560Z,3.20
2019-02-16T08:05:05.435Z,3.20
2019-02-16T08:08:12.154Z,3.10
2019-02-16T08:10:58.037Z,3.10
2019-02-16T08:13:35.828Z,3.20
2019-02-16T08:16:26.163Z,3.20
2019-02-16T08:19:17.643Z,3.20
2019-02-16T08:22:12.135Z,3.20
2019-02-16T08:24:56.737Z,3.20
2019-02-16T08:27:44.161Z,3.20
2019-02-16T08:30:43.231Z,3.00
2019-02-16T08:33:43.541Z,3.10
2019-02-16T08:36:47.061Z,3.10
2019-02-16T08:39:34.136Z,3.20
2019-02-16T08:42:38.002Z,3.20
2019-02-16T08:45:26.827Z,3.20
2019-02-16T08:48:30.328Z,3.30
2019-02-16T08:51:30.620Z,3.30
2019-02-16T08:54:11.807Z,3.40
2019-02-16T08:56:53.395Z,3.30
2019-02-16T08:59:41.831Z,3.30
2019-02-16T09:02:21.049Z,3.40
2019-02-16T09:05:12.258Z,3.40
2019-02-16T09:08:03.781Z,3.40
2019-02-16T09:10:55.339Z,3.50
2019-02-16T09:13:33.495Z,3.50
2019-02-16T09:16:11.416Z,3.50
2019-02-16T09:19:00.933Z,3.50
2019-02-16T09:21:49.383Z,3.60
2019-02-16T09:24:31.224Z,3.60
2019-02-16T09:27:27.992Z,3.70
2019-02-16T09:30:19.397Z,3.80
2019-02-16T09:32:54.113Z,3.80
2019-02-16T09:35:41.926Z,3.80
2019-02-16T09:38:31.044Z,3.80
2019-02-16T09:41:09.969Z,3.90
2019-02-16T09:43:58.432Z,3.90
2019-02-16T09:46:45.540Z,4.00
2019-02-16T09:49:40.092Z,4.00
2019-02-16T09:52:27.353Z,4.10
2019-02-16T09:55:18.746Z,4.20
2019-02-16T09:58:16.046Z,4.20
2019-02-16T10:00:58.028Z,4.30
2019-02-16T10:03:36.594Z,4.40
2019-02-16T10:06:24.250Z,4.50
2019-02-16T10:09:18.962Z,4.50
2019-02-16T10:12:07.598Z,4.60
2019-02-16T10:14:53.111Z,4.50
2019-02-16T10:17:41.581Z,4.60
2019-02-16T10:20:33.610Z,4.60
2019-02-16T10:23:31.074Z,4.60
2019-02-16T10:26:18.388Z,4.70
2019-02-16T10:29:09.949Z,4.60
2019-02-16T10:31:48.582Z,4.70
2019-02-16T10:34:46.116Z,4.80
2019-02-16T10:37:27.999Z,4.80
2019-02-16T10:40:16.378Z,4.80
2019-02-16T10:43:07.824Z,4.90
2019-02-16T10:45:56.252Z,4.90
2019-02-16T10:48:39.564Z,5.00
2019-02-16T10:51:28.252Z,5.00
2019-02-16T10:54:29.754Z,5.10
2019-02-16T10:57:18.227Z,5.10
2019-02-16T11:00:12.864Z,5.30
2019-02-16T11:03:01.398Z,5.30
2019-02-16T11:05:55.908Z,5.40
2019-02-16T11:08:34.964Z,5.50
2019-02-16T11:11:29.286Z,5.40
2019-02-16T11:14:16.625Z,5.30
2019-02-16T11:17:11.204Z,5.40
2019-02-16T11:19:59.403Z,5.30
2019-02-16T11:22:36.335Z,5.40
2019-02-16T11:25:20.118Z,5.50
2019-02-16T11:28:00.403Z,5.60
2019-02-16T11:30:47.739Z,5.50
2019-02-16T11:33:44.279Z,5.50
2019-02-16T11:36:19.083Z,5.50
2019-02-16T11:39:06.949Z,5.60
2019-02-16T11:41:41.322Z,5.70
2019-02-16T11:44:29.783Z,5.70
2019-02-16T11:47:18.628Z,5.70
2019-02-16T11:50:06.030Z,5.70
2019-02-16T11:53:00.815Z,5.70
2019-02-16T11:55:44.181Z,5.70
2019-02-16T11:58:24.490Z,5.80
2019-02-16T12:01:22.055Z,5.80
2019-02-16T12:04:02.885Z,5.90
2019-02-16T12:06:46.426Z,6.00
2019-02-16T12:09:36.170Z,6.00
2019-02-16T12:12:30.469Z,6.00
2019-02-16T12:15:18.044Z,6.00
2019-02-16T12:18:09.446Z,6.10
2019-02-16T12:21:00.981Z,6.10
2019-02-16T12:23:49.593Z,6.20
2019-02-16T12:26:35.921Z,6.20
2019-02-16T12:29:24.329Z,6.20
2019-02-16T12:32:15.899Z,6.20
2019-02-16T12:35:13.105Z,6.30
2019-02-16T12:37:52.166Z,6.40
2019-02-16T12:40:49.670Z,6.50
2019-02-16T12:43:36.670Z,6.50
2019-02-16T12:46:21.658Z,6.50
2019-02-16T12:48:57.446Z,6.50
2019-02-16T12:51:58.335Z,6.60
2019-02-16T12:55:14.423Z,6.60
2019-02-16T12:57:47.604Z,6.60
2019-02-16T13:00:27.522Z,6.60
2019-02-16T13:03:25.123Z,6.60
2019-02-16T13:06:12.163Z,6.70
2019-02-16T13:08:49.343Z,6.70
2019-02-16T13:11:56.014Z,6.60
2019-02-16T13:14:47.059Z,6.70
2019-02-16T13:17:35.482Z,6.70
2019-02-16T13:20:22.770Z,6.70
2019-02-16T13:23:10.100Z,6.70
2019-02-16T13:25:45.236Z,6.70
2019-02-16T13:28:31.178Z,6.80
2019-02-16T13:31:15.004Z,6.80
2019-02-16T13:34:15.905Z,6.70
2019-02-16T13:36:53.923Z,6.70
2019-02-16T13:39:30.191Z,6.70
2019-02-16T13:42:14.433Z,6.70
2019-02-16T13:44:55.551Z,6.70
2019-02-16T13:47:28.053Z,6.70
2019-02-16T13:50:05.469Z,6.70
2019-02-16T13:52:49.886Z,6.70
2019-02-16T13:55:44.387Z,6.70
2019-02-16T13:58:32.874Z,6.80
2019-02-16T14:01:17.234Z,6.80
2019-02-16T14:04:11.615Z,6.80
2019-02-16T14:07:00.057Z,6.80
2019-02-16T14:09:54.702Z,6.70
2019-02-16T14:13:01.510Z,6.70
2019-02-16T14:16:02.363Z,6.60
2019-02-16T14:18:31.917Z,6.60
2019-02-16T14:21:01.440Z,6.60
2019-02-16T14:23:30.940Z,6.60
2019-02-16T14:26:00.503Z,6.60
2019-02-16T14:28:30.693Z,6.60
2019-02-16T14:31:00.173Z,6.60
2019-02-16T14:33:29.654Z,6.50
2019-02-16T14:35:59.251Z,6.50
2019-02-16T14:38:53.953Z,6.50
2019-02-16T14:41:23.517Z,6.50
2019-02-16T14:43:53.002Z,6.40
2019-02-16T14:46:22.549Z,6.40
2019-02-16T14:48:52.049Z,6.40
2019-02-16T14:51:21.558Z,6.40
2019-02-16T14:53:51.175Z,6.30
2019-02-16T14:56:20.652Z,6.30
2019-02-16T14:58:50.217Z,6.20
2019-02-16T15:01:19.759Z,6.20
2019-02-16T15:03:49.269Z,6.10
2019-02-16T15:06:18.732Z,6.00
2019-02-16T15:08:48.405Z,5.90
2019-02-16T15:11:17.893Z,6.00
2019-02-16T15:13:47.469Z,5.90
2019-02-16T15:16:17.944Z,5.80
2019-02-16T15:18:47.436Z,5.70
2019-02-16T15:21:17.068Z,5.60
2019-02-16T15:23:46.574Z,5.60
2019-02-16T15:26:16.071Z,5.50
2019-02-16T15:28:45.609Z,5.40
2019-02-16T15:31:15.444Z,5.30
2019-02-16T15:33:44.920Z,5.30
2019-02-16T15:36:23.458Z,5.20
2019-02-16T15:38:45.989Z,5.10
2019-02-16T15:41:15.485Z,5.00
2019-02-16T15:43:45.146Z,4.90
2019-02-16T15:46:14.934Z,4.90
2019-02-16T15:48:44.395Z,4.80
2019-02-16T15:51:13.993Z,4.70
2019-02-16T15:53:43.485Z,4.60
2019-02-16T15:56:12.987Z,4.50
2019-02-16T15:58:42.464Z,4.40
2019-02-16T16:01:12.069Z,4.30
2019-02-16T16:03:41.513Z,4.20
2019-02-16T16:06:11.578Z,4.10
2019-02-16T16:08:55.120Z,4.00
2019-02-16T16:11:38.480Z,3.90
2019-02-16T16:14:17.143Z,3.80
2019-02-16T16:17:01.234Z,3.80
2019-02-16T16:20:01.922Z,3.70
2019-02-16T16:22:49.312Z,3.80
2019-02-16T16:25:40.595Z,3.70
2019-02-16T16:28:26.359Z,3.70
2019-02-16T16:31:18.019Z,3.60
2019-02-16T16:33:59.968Z,3.50
2019-02-16T16:36:41.691Z,3.40
2019-02-16T16:39:27.006Z,3.30
2019-02-16T16:42:18.602Z,3.30
2019-02-16T16:45:08.019Z,3.40
2019-02-16T16:47:56.390Z,3.30
2019-02-16T16:50:44.065Z,3.20
2019-02-16T16:53:26.530Z,3.20
2019-02-16T16:56:04.566Z,3.10
2019-02-16T16:58:58.940Z,3.10
2019-02-16T17:01:36.570Z,3.10
2019-02-16T17:04:25.005Z,3.10
2019-02-16T17:07:12.447Z,3.10
2019-02-16T17:10:16.284Z,3.00
2019-02-16T17:13:00.098Z,3.00
2019-02-16T17:15:48.753Z,3.00
2019-02-16T17:18:36.107Z,2.90
2019-02-16T17:21:15.689Z,2.90
2019-02-16T17:24:19.594Z,2.80
2019-02-16T17:27:11.226Z,2.70
2019-02-16T17:30:03.349Z,2.70
2019-02-16T17:32:46.260Z,2.60
2019-02-16T17:35:47.596Z,2.60
2019-02-16T17:38:34.602Z,2.60
2019-02-16T17:41:09.489Z,2.60
2019-02-16T17:44:00.860Z,2.60
2019-02-16T17:46:49.322Z,2.60
2019-02-16T17:49:33.049Z,2.60
2019-02-16T17:52:30.734Z,2.60
2019-02-16T17:55:15.986Z,2.50
2019-02-16T17:58:20.262Z,2.50
2019-02-16T18:01:08.821Z,2.50
2019-02-16T18:04:03.436Z,2.50
2019-02-16T18:06:58.272Z,2.40
2019-02-16T18:09:49.946Z,2.40
2019-02-16T18:12:37.142Z,2.40
2019-02-16T18:15:38.389Z,2.40
2019-02-16T18:18:31.010Z,2.40
2019-02-16T18:21:09.592Z,2.40
2019-02-16T18:23:44.061Z,2.40
2019-02-16T18:26:34.013Z,2.40
2019-02-16T18:29:31.409Z,2.30
2019-02-16T18:32:18.650Z,2.30
2019-02-16T18:35:05.810Z,2.20
2019-02-16T18:37:54.947Z,2.20
2019-02-16T18:40:35.532Z,2.10
2019-02-16T18:43:29.865Z,2.10
2019-02-16T18:46:21.109Z,2.10
2019-02-16T18:49:00.493Z,2.00
2019-02-16T18:51:48.717Z,2.00
2019-02-16T18:54:52.265Z,2.00
2019-02-16T18:57:40.664Z,2.00
2019-02-16T19:00:36.422Z,1.90
2019-02-16T19:03:17.253Z,1.90
2019-02-16T19:06:08.503Z,1.80
2019-02-16T19:08:44.380Z,1.80
2019-02-16T19:11:31.705Z,1.80
2019-02-16T19:14:26.295Z,1.70
2019-02-16T19:17:17.904Z,1.80
2019-02-16T19:20:24.763Z,1.70
2019-02-16T19:23:13.223Z,1.70
2019-02-16T19:26:07.463Z,1.70
2019-02-16T19:29:07.849Z,1.60
2019-02-16T19:32:02.084Z,1.60
2019-02-16T19:34:49.196Z,1.70
2019-02-16T19:37:27.714Z,1.60
2019-02-16T19:40:22.304Z,1.60
2019-02-16T19:43:11.783Z,1.50
2019-02-16T19:45:55.820Z,1.40
2019-02-16T19:48:50.338Z,1.40
2019-02-16T19:51:33.552Z,1.40
2019-02-16T19:54:34.441Z,1.40
2019-02-16T19:57:34.962Z,1.50
2019-02-16T20:00:24.435Z,1.50
2019-02-16T20:03:06.291Z,1.50
2019-02-16T20:05:56.115Z,1.50
2019-02-16T20:08:37.137Z,1.50
2019-02-16T20:11:28.658Z,1.50
2019-02-16T20:14:11.985Z,1.50
2019-02-16T20:16:49.315Z,1.40
2019-02-16T20:19:37.825Z,1.40
2019-02-16T20:22:24.927Z,1.30
2019-02-16T20:25:10.011Z,1.30
2019-02-16T20:28:02.061Z,1.30
2019-02-16T20:30:38.103Z,1.20
2019-02-16T20:33:32.942Z,1.20
2019-02-16T20:36:11.143Z,1.20
2019-02-16T20:38:53.130Z,1.20
2019-02-16T20:41:36.817Z,1.10
2019-02-16T20:44:29.031Z,1.10
2019-02-16T20:47:08.018Z,1.10
2019-02-16T20:49:56.654Z,1.10
2019-02-16T20:52:35.735Z,1.10
2019-02-16T20:55:27.326Z,1.00
2019-02-16T20:58:15.553Z,1.00
2019-02-16T21:01:12.428Z,1.10
2019-02-16T21:03:59.726Z,1.00
2019-02-16T21:06:43.000Z,1.00
2019-02-16T21:09:34.431Z,0.90
2019-02-16T21:12:15.558Z,0.90
2019-02-16T21:14:53.855Z,0.90
2019-02-16T21:17:41.430Z,0.90
2019-02-16T21:20:32.854Z,0.80
2019-02-16T21:23:24.338Z,0.80
2019-02-16T21:26:36.537Z,0.80
2019-02-16T21:29:15.243Z,0.70
2019-02-16T21:32:03.775Z,0.70
2019-02-16T21:34:52.361Z,0.60
2019-02-16T21:37:55.882Z,0.60
2019-02-16T21:40:32.940Z,0.60
2019-02-16T21:43:24.360Z,0.50
2019-02-16T21:46:12.054Z,0.50
2019-02-16T21:49:18.915Z,0.50
2019-02-16T21:52:05.806Z,0.50
2019-02-16T21:55:00.446Z,0.50
2019-02-16T21:58:08.022Z,0.40
2019-02-16T22:01:07.068Z,0.40
2019-02-16T22:03:52.166Z,0.40
2019-02-16T22:06:40.719Z,0.30
2019-02-16T22:09:28.317Z,0.40
2019-02-16T22:12:19.599Z,0.30
2019-02-16T22:14:49.269Z,0.30
2019-02-16T22:17:18.871Z,0.20
2019-02-16T22:19:48.669Z,0.20
2019-02-16T22:22:18.182Z,0.10
2019-02-16T22:24:47.738Z,0.10
2019-02-16T22:27:17.392Z,0.10
2019-02-16T22:29:46.886Z,0.10
2019-02-16T22:32:16.420Z,0.10
2019-02-16T22:34:46.020Z,0.10
2019-02-16T22:37:15.583Z,0.10
2019-02-16T22:39:45.351Z,0.10
2019-02-16T22:42:14.875Z,0.10
2019-02-16T22:44:44.362Z,0.20
2019-02-16T22:47:14.057Z,0.20
2019-02-16T22:49:43.524Z,0.20
2019-02-16T22:52:13.044Z,0.20
2019-02-16T22:54:42.596Z,0.20
2019-02-16T22:57:12.177Z,0.10
2019-02-16T22:59:41.766Z,0.10
2019-02-16T23:02:11.903Z,0.10
2019-02-16T23:04:41.586Z,0.10
2019-02-16T23:07:11.106Z,0.00
2019-02-16T23:09:40.665Z,0.00
2019-02-16T23:12:10.193Z,0.00
2019-02-16T23:14:39.724Z,-0.10
2019-02-16T23:17:09.446Z,-0.10
2019-02-16T23:19:38.947Z,-0.10
2019-02-16T23:22:08.450Z,-0.10
2019-02-16T23:24:37.956Z,-0.20
2019-02-16T23:27:07.515Z,-0.20
2019-02-16T23:29:37.053Z,-0.20
2019-02-16T23:32:06.590Z,-0.20
2019-02-16T23:34:36.252Z,-0.30
2019-02-16T23:37:05.760Z,-0.30
2019-02-16T23:39:35.251Z,-0.40
2019-02-16T23:42:04.866Z,-0.40
2019-02-16T23:44:34.374Z,-0.40
2019-02-16T23:47:03.871Z,-0.40
2019-02-16T23:49:33.426Z,-0.40
2019-02-16T23:52:02.938Z,-0.40
2019-02-16T23:54:32.439Z,-0.40
2019-02-16T23:57:02.550Z,-0.40
2019-02-16T23:59:32.208Z,-0.40
